createdAt,value
2023-04-27T00:02:25.553Z,7.48
2023-04-27T00:04:58.656Z,7.51
2023-04-27T00:07:31.479Z,7.54
2023-04-27T00:10:02.278Z,7.51
2023-04-27T00:12:32.329Z,7.39
2023-04-27T00:15:02.490Z,7.49
2023-04-27T00:17:32.550Z,7.45
2023-04-27T00:20:12.044Z,7.42
2023-04-27T00:22:42.664Z,7.33
2023-04-27T00:25:13.425Z,7.41
2023-04-27T00:27:43.616Z,7.38
2023-04-27T00:30:15.861Z,7.37
2023-04-27T00:32:48.981Z,7.27
2023-04-27T00:35:22.989Z,7.36
2023-04-27T00:37:55.655Z,7.28
2023-04-27T00:40:25.802Z,7.32
2023-04-27T00:42:59.030Z,7.31
2023-04-27T00:45:31.514Z,7.27
2023-04-27T00:48:02.804Z,7.19
2023-04-27T00:50:42.173Z,7.16
2023-04-27T00:53:14.944Z,7.16
2023-04-27T00:55:48.639Z,7.18
2023-04-27T00:58:19.333Z,7.14
2023-04-27T01:00:49.466Z,7.10
2023-04-27T01:03:21.559Z,7.08
2023-04-27T01:05:54.644Z,7.05
2023-04-27T01:08:30.936Z,7.04
2023-04-27T01:11:01.144Z,6.98
2023-04-27T01:13:31.149Z,6.91
2023-04-27T01:16:01.340Z,6.84
2023-04-27T01:18:33.815Z,6.76
2023-04-27T01:21:07.551Z,6.67
2023-04-27T01:23:41.127Z,6.57
2023-04-27T01:26:13.765Z,6.48
2023-04-27T01:28:44.982Z,6.36
2023-04-27T01:31:15.384Z,6.32
2023-04-27T01:33:45.742Z,6.29
2023-04-27T01:36:17.622Z,6.22
2023-04-27T01:38:51.361Z,6.20
2023-04-27T01:41:21.565Z,6.14
2023-04-27T01:43:51.652Z,6.09
2023-04-27T01:46:22.405Z,6.03
2023-04-27T01:48:53.812Z,6.04
2023-04-27T01:51:23.980Z,6.02
2023-04-27T01:53:57.057Z,5.95
2023-04-27T01:56:27.164Z,5.93
2023-04-27T01:59:01.461Z,5.88
2023-04-27T02:01:33.869Z,5.81
2023-04-27T02:04:04.425Z,5.78
2023-04-27T02:06:35.822Z,5.77
2023-04-27T02:09:24.759Z,5.72
2023-04-27T02:11:58.193Z,5.65
2023-04-27T02:14:29.194Z,5.64
2023-04-27T02:17:00.296Z,5.60
2023-04-27T02:19:31.276Z,5.55
2023-04-27T02:22:01.696Z,5.50
2023-04-27T02:24:38.340Z,5.47
2023-04-27T02:27:10.463Z,5.42
2023-04-27T02:29:41.698Z,5.43
2023-04-27T02:32:14.689Z,5.41
2023-04-27T02:34:46.081Z,5.40
2023-04-27T02:37:19.113Z,5.39
2023-04-27T02:39:52.472Z,5.41
2023-04-27T02:42:26.339Z,5.37
2023-04-27T02:44:58.136Z,5.31
2023-04-27T02:47:28.224Z,5.26
2023-04-27T02:49:58.366Z,5.27
2023-04-27T02:52:32.280Z,5.27
2023-04-27T02:55:04.958Z,5.11
2023-04-27T02:57:35.031Z,5.09
2023-04-27T03:00:05.540Z,5.17
2023-04-27T03:02:38.736Z,5.12
2023-04-27T03:05:10.214Z,5.14
2023-04-27T03:07:40.430Z,5.12
2023-04-27T03:10:14.236Z,5.16
2023-04-27T03:12:44.438Z,5.17
2023-04-27T03:15:14.699Z,5.08
2023-04-27T03:17:45.375Z,5.14
2023-04-27T03:20:16.455Z,5.11
2023-04-27T03:22:47.206Z,5.17
2023-04-27T03:25:20.016Z,5.14
2023-04-27T03:27:50.130Z,5.11
2023-04-27T03:30:20.368Z,5.07
2023-04-27T03:32:52.395Z,5.07
2023-04-27T03:35:22.564Z,5.06
2023-04-27T03:37:53.378Z,5.00
2023-04-27T03:40:27.035Z,4.97
2023-04-27T03:42:59.004Z,4.93
2023-04-27T03:45:38.887Z,4.92
2023-04-27T03:48:12.024Z,4.89
2023-04-27T03:50:42.382Z,4.84
2023-04-27T03:53:14.434Z,4.85
2023-04-27T03:55:48.211Z,4.80
2023-04-27T03:58:19.900Z,4.78
2023-04-27T04:01:12.439Z,4.70
2023-04-27T04:03:43.017Z,4.71
2023-04-27T04:06:13.418Z,4.61
2023-04-27T04:08:43.648Z,4.69
2023-04-27T04:11:23.574Z,4.67
2023-04-27T04:13:57.368Z,4.49
2023-04-27T04:16:38.148Z,4.63
2023-04-27T04:19:08.418Z,4.56
2023-04-27T04:21:38.529Z,4.62
2023-04-27T04:24:10.396Z,4.43
2023-04-27T04:26:47.409Z,4.60
2023-04-27T04:29:25.253Z,4.51
2023-04-27T04:31:55.470Z,4.61
2023-04-27T04:34:29.396Z,4.67
2023-04-27T04:37:02.506Z,4.63
2023-04-27T04:39:34.394Z,4.64
2023-04-27T04:42:08.492Z,4.64
2023-04-27T04:44:46.313Z,4.71
2023-04-27T04:47:18.048Z,4.64
2023-04-27T04:49:58.301Z,4.43
2023-04-27T04:52:32.425Z,4.68
2023-04-27T04:55:02.512Z,4.68
2023-04-27T04:57:36.197Z,4.68
2023-04-27T05:00:11.827Z,4.46
2023-04-27T05:02:42.522Z,4.68
2023-04-27T05:05:13.143Z,4.72
2023-04-27T05:07:53.122Z,4.79
2023-04-27T05:10:23.101Z,4.82
2023-04-27T05:12:56.458Z,4.88
2023-04-27T05:15:26.730Z,4.92
2023-04-27T05:17:57.129Z,5.00
2023-04-27T05:20:27.265Z,5.02
2023-04-27T05:22:57.407Z,5.07
2023-04-27T05:25:27.454Z,6.67
2023-04-27T05:28:00.725Z,8.81
2023-04-27T05:30:31.050Z,10.29
2023-04-27T05:33:01.195Z,11.65
2023-04-27T05:35:33.486Z,12.63
2023-04-27T05:38:04.184Z,13.36
2023-04-27T05:40:34.320Z,13.64
2023-04-27T05:43:07.619Z,13.69
2023-04-27T05:45:42.465Z,13.86
2023-04-27T05:48:12.653Z,14.12
2023-04-27T05:50:42.739Z,14.04
2023-04-27T05:53:12.923Z,14.16
2023-04-27T05:55:43.433Z,14.02
2023-04-27T05:58:16.425Z,13.78
2023-04-27T06:00:47.317Z,13.50
2023-04-27T06:03:17.584Z,13.22
2023-04-27T06:05:47.968Z,12.91
2023-04-27T06:08:19.432Z,12.64
2023-04-27T06:10:49.469Z,12.24
2023-04-27T06:13:22.474Z,11.89
2023-04-27T06:15:52.596Z,11.61
2023-04-27T06:18:23.674Z,11.03
2023-04-27T06:20:54.009Z,10.42
2023-04-27T06:23:24.226Z,10.24
2023-04-27T06:25:54.407Z,10.00
2023-04-27T06:28:27.404Z,9.70
2023-04-27T06:30:57.646Z,9.63
2023-04-27T06:33:27.882Z,9.52
2023-04-27T06:35:58.598Z,9.40
2023-04-27T06:38:28.693Z,9.38
2023-04-27T06:40:59.459Z,9.39
2023-04-27T06:43:33.879Z,9.30
2023-04-27T06:46:04.239Z,9.10
2023-04-27T06:48:34.352Z,9.01
2023-04-27T06:51:04.529Z,9.12
2023-04-27T06:53:34.541Z,9.08
2023-04-27T06:56:04.966Z,8.99
2023-04-27T06:58:37.848Z,8.93
2023-04-27T07:01:07.996Z,8.80
2023-04-27T07:03:38.787Z,8.73
2023-04-27T07:06:09.173Z,8.76
2023-04-27T07:08:39.391Z,8.80
2023-04-27T07:11:09.545Z,8.78
2023-04-27T07:13:42.700Z,8.76
2023-04-27T07:16:13.094Z,8.78
2023-04-27T07:18:43.667Z,8.78
2023-04-27T07:21:14.036Z,8.87
2023-04-27T07:23:44.197Z,9.01
2023-04-27T07:26:14.247Z,9.18
2023-04-27T07:28:47.416Z,9.22
2023-04-27T07:31:17.915Z,9.22
2023-04-27T07:33:48.128Z,9.12
2023-04-27T07:36:18.260Z,9.10
2023-04-27T07:38:48.766Z,9.05
2023-04-27T07:41:20.445Z,9.11
2023-04-27T07:43:53.090Z,9.18
2023-04-27T07:46:23.356Z,9.38
2023-04-27T07:48:55.390Z,9.59
2023-04-27T07:51:25.414Z,9.73
2023-04-27T07:53:55.660Z,9.75
2023-04-27T07:56:25.880Z,9.68
2023-04-27T07:58:58.674Z,9.73
2023-04-27T08:01:28.870Z,9.90
2023-04-27T08:03:59.732Z,9.70
2023-04-27T08:06:31.630Z,9.60
2023-04-27T08:09:04.301Z,9.57
2023-04-27T08:11:34.819Z,9.06
2023-04-27T08:14:13.522Z,9.00
2023-04-27T08:16:44.150Z,8.97
2023-04-27T08:19:14.721Z,9.19
2023-04-27T08:21:53.963Z,9.23
2023-04-27T08:24:24.052Z,9.47
2023-04-27T08:26:57.610Z,9.54
2023-04-27T08:29:30.647Z,9.40
2023-04-27T08:32:05.357Z,9.71
2023-04-27T08:34:35.477Z,9.89
2023-04-27T08:37:05.619Z,9.91
2023-04-27T08:39:35.694Z,10.06
2023-04-27T08:42:13.885Z,10.20
2023-04-27T08:44:47.515Z,10.31
2023-04-27T08:47:28.314Z,10.52
2023-04-27T08:50:06.159Z,10.75
2023-04-27T08:52:36.225Z,10.86
2023-04-27T08:55:09.576Z,11.00
2023-04-27T08:57:39.894Z,10.88
2023-04-27T09:00:15.392Z,10.68
2023-04-27T09:02:50.147Z,10.68
2023-04-27T09:05:20.742Z,10.71
2023-04-27T09:08:05.920Z,10.62
2023-04-27T09:10:47.050Z,10.35
2023-04-27T09:13:17.845Z,10.57
2023-04-27T09:15:53.576Z,10.62
2023-04-27T09:18:24.962Z,10.98
2023-04-27T09:20:58.344Z,11.26
2023-04-27T09:23:32.017Z,11.18
2023-04-27T09:26:08.335Z,10.97
2023-04-27T09:28:41.540Z,10.85
2023-04-27T09:31:36.877Z,10.76
2023-04-27T09:34:10.384Z,10.99
2023-04-27T09:36:42.913Z,10.94
2023-04-27T09:39:13.328Z,10.83
2023-04-27T09:41:43.913Z,10.96
2023-04-27T09:44:18.346Z,10.99
2023-04-27T09:46:54.522Z,11.09
2023-04-27T09:49:26.522Z,11.30
2023-04-27T09:51:59.138Z,11.36
2023-04-27T09:54:33.172Z,11.08
2023-04-27T09:57:18.517Z,11.12
2023-04-27T10:00:11.339Z,11.00
2023-04-27T10:03:00.042Z,10.92
2023-04-27T10:06:00.295Z,10.75
2023-04-27T10:08:32.092Z,10.62
2023-04-27T10:11:02.110Z,10.44
2023-04-27T10:13:34.871Z,10.30
2023-04-27T10:16:21.223Z,10.46
2023-04-27T10:19:03.628Z,10.64
2023-04-27T10:21:33.941Z,10.79
2023-04-27T10:24:11.389Z,10.87
2023-04-27T10:26:51.867Z,11.16
2023-04-27T10:29:21.962Z,11.32
2023-04-27T10:31:55.821Z,11.69
2023-04-27T10:34:31.430Z,11.98
2023-04-27T10:37:09.007Z,12.39
2023-04-27T10:39:48.632Z,12.69
2023-04-27T10:42:30.234Z,13.20
2023-04-27T10:45:01.125Z,13.61
2023-04-27T10:47:41.237Z,13.87
2023-04-27T10:50:16.697Z,14.20
2023-04-27T10:52:47.384Z,14.33
2023-04-27T10:55:19.051Z,14.57
2023-04-27T10:57:51.156Z,14.60
2023-04-27T11:00:32.022Z,14.53
2023-04-27T11:03:17.585Z,14.21
2023-04-27T11:05:51.927Z,13.88
2023-04-27T11:08:22.514Z,13.69
2023-04-27T11:10:54.026Z,14.07
2023-04-27T11:13:26.282Z,14.59
2023-04-27T11:15:58.481Z,14.87
2023-04-27T11:18:30.797Z,14.77
2023-04-27T11:21:13.117Z,14.37
2023-04-27T11:23:44.480Z,14.14
2023-04-27T11:26:16.287Z,13.93
2023-04-27T11:28:47.775Z,13.87
2023-04-27T11:31:17.866Z,13.81
2023-04-27T11:33:56.023Z,13.35
2023-04-27T11:36:29.092Z,13.04
2023-04-27T11:39:06.623Z,13.03
2023-04-27T11:41:46.572Z,13.46
2023-04-27T11:44:16.742Z,13.59
2023-04-27T11:46:48.277Z,13.57
2023-04-27T11:49:18.664Z,13.72
2023-04-27T11:51:54.598Z,13.75
2023-04-27T11:54:31.825Z,14.01
2023-04-27T11:57:08.972Z,13.91
2023-04-27T11:59:39.248Z,13.61
2023-04-27T12:02:10.352Z,13.24
2023-04-27T12:04:43.348Z,13.01
2023-04-27T12:07:16.144Z,13.24
2023-04-27T12:09:46.339Z,13.19
2023-04-27T12:12:18.497Z,13.50
2023-04-27T12:14:50.822Z,13.81
2023-04-27T12:17:22.710Z,14.14
2023-04-27T12:19:52.807Z,14.21
2023-04-27T12:22:29.023Z,13.95
2023-04-27T12:24:59.829Z,13.61
2023-04-27T12:27:30.022Z,13.67
2023-04-27T12:30:01.564Z,13.60
2023-04-27T12:32:32.061Z,13.75
2023-04-27T12:35:02.137Z,14.03
2023-04-27T12:37:37.367Z,14.42
2023-04-27T12:40:16.838Z,14.73
2023-04-27T12:42:47.799Z,14.74
2023-04-27T12:45:19.866Z,14.52
2023-04-27T12:48:03.350Z,14.37
2023-04-27T12:50:35.419Z,14.31
2023-04-27T12:53:08.040Z,14.28
2023-04-27T12:55:38.395Z,14.45
2023-04-27T12:58:16.391Z,14.80
2023-04-27T13:00:52.167Z,14.80
2023-04-27T13:03:23.844Z,14.71
2023-04-27T13:05:56.460Z,14.65
2023-04-27T13:08:31.398Z,14.66
2023-04-27T13:11:01.658Z,14.80
2023-04-27T13:13:32.833Z,14.93
2023-04-27T13:16:04.731Z,14.81
2023-04-27T13:18:37.026Z,14.54
2023-04-27T13:21:25.249Z,14.49
2023-04-27T13:24:00.364Z,14.66
2023-04-27T13:26:31.225Z,14.51
2023-04-27T13:29:03.750Z,14.56
2023-04-27T13:31:35.165Z,14.51
2023-04-27T13:34:07.195Z,14.27
2023-04-27T13:36:37.244Z,14.10
2023-04-27T13:39:10.369Z,14.12
2023-04-27T13:41:40.450Z,13.97
2023-04-27T13:44:10.991Z,13.94
2023-04-27T13:46:42.539Z,13.83
2023-04-27T13:49:12.979Z,13.87
2023-04-27T13:51:43.277Z,13.74
2023-04-27T13:54:16.546Z,13.72
2023-04-27T13:56:55.222Z,13.62
2023-04-27T13:59:25.703Z,13.62
2023-04-27T14:01:56.405Z,13.95
2023-04-27T14:04:26.487Z,14.19
2023-04-27T14:06:56.775Z,14.21
2023-04-27T14:09:30.362Z,14.30
2023-04-27T14:12:02.909Z,14.37
2023-04-27T14:14:33.114Z,14.06
2023-04-27T14:17:17.722Z,14.14
2023-04-27T14:19:47.724Z,14.19
2023-04-27T14:22:20.142Z,14.18
2023-04-27T14:24:53.012Z,14.26
2023-04-27T14:27:25.429Z,14.16
2023-04-27T14:29:55.558Z,14.13
2023-04-27T14:32:25.970Z,14.02
2023-04-27T14:35:00.004Z,13.98
2023-04-27T14:37:30.126Z,13.99
2023-04-27T14:40:12.322Z,14.07
2023-04-27T14:42:42.488Z,14.25
2023-04-27T14:45:13.633Z,14.27
2023-04-27T14:47:45.175Z,14.13
2023-04-27T14:50:15.734Z,14.08
2023-04-27T14:52:46.166Z,14.21
2023-04-27T14:55:18.941Z,13.78
2023-04-27T14:57:49.294Z,13.99
2023-04-27T15:00:20.322Z,14.00
2023-04-27T15:02:50.639Z,14.04
2023-04-27T15:05:20.854Z,14.01
2023-04-27T15:07:50.976Z,14.02
2023-04-27T15:10:23.798Z,14.14
2023-04-27T15:12:53.944Z,14.12
2023-04-27T15:15:24.715Z,14.29
2023-04-27T15:17:54.782Z,14.41
2023-04-27T15:20:24.783Z,14.51
2023-04-27T15:22:54.874Z,14.84
2023-04-27T15:25:29.721Z,14.76
2023-04-27T15:28:03.770Z,14.73
2023-04-27T15:30:35.627Z,14.65
2023-04-27T15:33:10.385Z,14.60
2023-04-27T15:35:43.538Z,14.70
2023-04-27T15:38:15.306Z,14.76
2023-04-27T15:40:49.174Z,14.86
2023-04-27T15:43:19.253Z,14.81
2023-04-27T15:45:49.260Z,14.58
2023-04-27T15:48:19.392Z,14.55
2023-04-27T15:50:49.759Z,14.15
2023-04-27T15:53:19.955Z,14.16
2023-04-27T15:55:52.664Z,14.24
2023-04-27T15:58:22.919Z,14.25
2023-04-27T16:00:53.186Z,14.28
2023-04-27T16:03:23.505Z,14.28
2023-04-27T16:06:03.867Z,14.30
2023-04-27T16:08:36.849Z,14.12
2023-04-27T16:11:11.678Z,14.08
2023-04-27T16:13:42.077Z,13.59
2023-04-27T16:16:18.877Z,13.58
2023-04-27T16:18:51.362Z,13.36
2023-04-27T16:21:21.695Z,13.25
2023-04-27T16:23:52.287Z,13.22
2023-04-27T16:26:27.772Z,13.40
2023-04-27T16:29:01.032Z,13.52
2023-04-27T16:31:32.761Z,13.64
2023-04-27T16:34:05.199Z,13.57
2023-04-27T16:36:35.551Z,13.53
2023-04-27T16:39:06.152Z,13.58
2023-04-27T16:41:47.958Z,13.41
2023-04-27T16:44:18.411Z,13.30
2023-04-27T16:46:48.963Z,13.13
2023-04-27T16:49:19.025Z,12.94
2023-04-27T16:51:49.135Z,13.06
2023-04-27T16:54:20.757Z,13.00
2023-04-27T16:56:55.102Z,12.84
2023-04-27T16:59:35.347Z,12.82
2023-04-27T17:02:16.966Z,12.79
2023-04-27T17:04:54.483Z,12.76
2023-04-27T17:07:25.705Z,12.75
2023-04-27T17:09:56.339Z,12.72
2023-04-27T17:12:29.154Z,12.67
2023-04-27T17:15:01.736Z,12.68
2023-04-27T17:17:33.836Z,12.73
2023-04-27T17:20:07.370Z,12.74
2023-04-27T17:22:37.569Z,12.65
2023-04-27T17:25:11.959Z,12.61
2023-04-27T17:27:44.631Z,12.61
2023-04-27T17:30:16.920Z,12.61
2023-04-27T17:32:47.161Z,12.62
2023-04-27T17:35:19.543Z,12.53
2023-04-27T17:37:49.588Z,12.49
2023-04-27T17:40:21.164Z,12.40
2023-04-27T17:42:56.528Z,12.26
2023-04-27T17:45:36.270Z,12.19
2023-04-27T17:48:12.770Z,12.16
2023-04-27T17:50:42.969Z,12.14
2023-04-27T17:53:13.084Z,12.11
2023-04-27T17:55:47.992Z,12.08
2023-04-27T17:58:21.614Z,12.07
2023-04-27T18:00:54.876Z,12.06
2023-04-27T18:03:27.147Z,12.08
2023-04-27T18:06:00.236Z,12.01
2023-04-27T18:08:30.569Z,11.89
2023-04-27T18:11:01.192Z,11.90
2023-04-27T18:13:33.968Z,11.83
2023-04-27T18:16:06.033Z,11.82
2023-04-27T18:18:36.222Z,11.73
2023-04-27T18:21:06.929Z,11.73
2023-04-27T18:23:38.965Z,11.63
2023-04-27T18:26:11.638Z,11.61
2023-04-27T18:28:44.425Z,11.56
2023-04-27T18:31:18.350Z,11.50
2023-04-27T18:33:49.275Z,11.44
2023-04-27T18:36:19.884Z,11.36
2023-04-27T18:38:51.126Z,11.32
2023-04-27T18:41:21.307Z,11.29
2023-04-27T18:43:54.928Z,11.23
2023-04-27T18:46:25.097Z,11.21
2023-04-27T18:48:55.170Z,11.16
2023-04-27T18:51:29.232Z,11.15
2023-04-27T18:53:59.312Z,11.08
2023-04-27T18:56:29.562Z,11.04
2023-04-27T18:59:02.912Z,10.97
2023-04-27T19:01:38.100Z,10.99
2023-04-27T19:04:08.820Z,10.93
2023-04-27T19:06:39.120Z,10.96
2023-04-27T19:09:10.298Z,10.93
2023-04-27T19:11:41.200Z,10.88
2023-04-27T19:14:14.619Z,10.81
2023-04-27T19:16:45.140Z,10.73
2023-04-27T19:19:15.617Z,10.73
2023-04-27T19:21:47.551Z,10.66
2023-04-27T19:24:17.685Z,10.66
2023-04-27T19:26:48.587Z,10.62
2023-04-27T19:29:22.438Z,10.55
2023-04-27T19:31:53.141Z,10.49
2023-04-27T19:34:24.182Z,10.46
2023-04-27T19:36:54.417Z,10.43
2023-04-27T19:39:25.441Z,10.42
2023-04-27T19:41:56.768Z,10.35
2023-04-27T19:44:29.924Z,10.11
2023-04-27T19:47:03.360Z,10.24
2023-04-27T19:49:36.820Z,10.24
2023-04-27T19:52:08.459Z,10.20
2023-04-27T19:54:39.677Z,10.20
2023-04-27T19:57:10.077Z,10.20
2023-04-27T19:59:42.907Z,10.21
2023-04-27T20:02:13.328Z,10.24
2023-04-27T20:04:43.848Z,10.26
2023-04-27T20:07:14.148Z,10.21
2023-04-27T20:09:44.502Z,10.23
2023-04-27T20:12:29.283Z,10.23
2023-04-27T20:15:08.260Z,10.20
2023-04-27T20:17:38.580Z,10.16
2023-04-27T20:20:12.565Z,10.01
2023-04-27T20:22:43.538Z,10.11
2023-04-27T20:25:14.898Z,10.08
2023-04-27T20:27:45.246Z,10.02
2023-04-27T20:30:20.256Z,10.03
2023-04-27T20:32:50.426Z,10.01
2023-04-27T20:35:20.598Z,9.99
2023-04-27T20:37:54.196Z,9.95
2023-04-27T20:40:32.151Z,9.90
2023-04-27T20:43:02.238Z,9.89
2023-04-27T20:45:37.294Z,9.83
2023-04-27T20:48:12.162Z,9.79
2023-04-27T20:50:42.770Z,9.74
2023-04-27T20:53:13.024Z,9.71
2023-04-27T20:55:43.340Z,9.67
2023-04-27T20:58:13.433Z,9.65
2023-04-27T21:00:46.591Z,9.61
2023-04-27T21:03:16.878Z,9.56
2023-04-27T21:05:49.225Z,9.49
2023-04-27T21:08:28.116Z,9.47
2023-04-27T21:10:58.426Z,9.45
2023-04-27T21:13:31.462Z,9.29
2023-04-27T21:16:05.162Z,9.41
2023-04-27T21:18:35.737Z,9.39
2023-04-27T21:21:07.499Z,9.36
2023-04-27T21:23:38.507Z,9.23
2023-04-27T21:26:12.697Z,9.32
2023-04-27T21:28:47.658Z,9.33
2023-04-27T21:31:20.964Z,9.15
2023-04-27T21:33:53.160Z,9.39
2023-04-27T21:36:23.493Z,9.37
2023-04-27T21:38:54.207Z,9.37
2023-04-27T21:41:25.992Z,9.36
2023-04-27T21:43:56.949Z,9.35
2023-04-27T21:46:29.964Z,9.25
2023-04-27T21:49:00.053Z,9.30
2023-04-27T21:51:30.151Z,9.25
2023-04-27T21:54:00.146Z,9.21
2023-04-27T21:56:30.508Z,9.19
2023-04-27T21:59:00.547Z,9.15
2023-04-27T22:01:33.370Z,9.11
2023-04-27T22:04:04.268Z,9.08
2023-04-27T22:06:38.178Z,9.04
2023-04-27T22:09:08.702Z,8.99
2023-04-27T22:11:42.590Z,8.95
2023-04-27T22:14:14.465Z,8.94
2023-04-27T22:16:49.055Z,8.94
2023-04-27T22:19:20.108Z,8.90
2023-04-27T22:21:50.120Z,8.88
2023-04-27T22:24:20.600Z,8.84
2023-04-27T22:26:51.005Z,8.82
2023-04-27T22:29:22.034Z,8.80
2023-04-27T22:31:55.390Z,8.79
2023-04-27T22:34:26.355Z,8.65
2023-04-27T22:36:57.113Z,8.69
2023-04-27T22:39:29.181Z,8.66
2023-04-27T22:41:59.415Z,8.65
2023-04-27T22:44:29.623Z,8.58
2023-04-27T22:47:02.838Z,8.52
2023-04-27T22:49:34.508Z,8.43
2023-04-27T22:52:04.898Z,8.40
2023-04-27T22:54:35.225Z,8.40
2023-04-27T22:57:08.268Z,8.34
2023-04-27T22:59:38.393Z,8.23
2023-04-27T23:02:11.579Z,8.28
2023-04-27T23:04:41.697Z,8.28
2023-04-27T23:07:12.126Z,8.29
2023-04-27T23:09:42.870Z,8.27
2023-04-27T23:12:12.881Z,8.24
2023-04-27T23:14:43.014Z,8.25
2023-04-27T23:17:15.755Z,8.25
2023-04-27T23:19:46.951Z,8.27
2023-04-27T23:22:16.865Z,8.24
2023-04-27T23:24:47.163Z,8.23
2023-04-27T23:27:17.286Z,8.21
2023-04-27T23:29:47.378Z,8.18
2023-04-27T23:32:20.215Z,8.16
2023-04-27T23:34:50.648Z,8.15
2023-04-27T23:37:22.567Z,8.13
2023-04-27T23:39:52.753Z,8.07
2023-04-27T23:42:22.931Z,8.09
2023-04-27T23:44:53.836Z,8.10
2023-04-27T23:47:27.893Z,8.10
2023-04-27T23:49:58.151Z,8.12
2023-04-27T23:52:30.278Z,8.10
2023-04-27T23:55:01.224Z,7.93
2023-04-27T23:57:31.434Z,8.12
